createdAt,value
2023-04-12T00:07:47.130Z,79.92
2023-04-12T00:17:50.309Z,80.07
2023-04-12T00:27:53.680Z,80.56
2023-04-12T00:37:57.931Z,80.61
2023-04-12T00:48:01.613Z,80.86
2023-04-12T00:58:06.006Z,80.56
2023-04-12T01:08:10.800Z,80.47
2023-04-12T01:18:22.347Z,79.98
2023-04-12T01:28:38.629Z,80.58
2023-04-12T01:38:42.802Z,81.18
2023-04-12T01:48:51.307Z,81.16
2023-04-12T01:58:56.279Z,81.46
2023-04-12T02:09:04.698Z,81.64
2023-04-12T02:19:10.736Z,81.97
2023-04-12T02:29:13.934Z,81.83
2023-04-12T02:39:22.423Z,81.56
2023-04-12T02:49:27.549Z,81.42
2023-04-12T02:59:32.121Z,81.12
2023-04-12T03:09:48.739Z,81.70
2023-04-12T03:19:52.604Z,82.40
2023-04-12T03:29:56.969Z,82.31
2023-04-12T03:40:01.141Z,82.15
2023-04-12T04:00:14.787Z,82.02
2023-04-12T04:10:37.148Z,81.98
2023-04-12T04:20:40.632Z,81.43
2023-04-12T04:30:46.343Z,81.43
2023-04-12T04:40:55.493Z,81.34
2023-04-12T04:51:03.444Z,80.95
2023-04-12T05:01:07.516Z,80.91
2023-04-12T05:11:11.369Z,80.79
2023-04-12T05:21:14.569Z,80.64
2023-04-12T05:31:19.683Z,80.13
2023-04-12T05:41:24.038Z,80.04
2023-04-12T05:51:39.931Z,79.52
2023-04-12T06:01:46.406Z,79.04
2023-04-12T06:11:51.184Z,78.51
2023-04-12T06:21:54.924Z,78.09
2023-04-12T06:31:58.898Z,78.25
2023-04-12T06:42:02.919Z,77.99
2023-04-12T06:52:06.057Z,77.22
2023-04-12T07:02:09.447Z,76.73
2023-04-12T07:12:12.896Z,76.41
2023-04-12T07:22:16.034Z,75.67
2023-04-12T07:32:19.249Z,74.52
2023-04-12T07:42:22.435Z,73.94
2023-04-12T07:52:25.947Z,73.47
2023-04-12T08:02:29.168Z,72.64
2023-04-12T08:12:32.390Z,72.14
2023-04-12T08:22:35.922Z,70.35
2023-04-12T08:32:39.441Z,69.02
2023-04-12T08:42:43.287Z,66.08
2023-04-12T08:52:49.456Z,64.99
2023-04-12T09:02:54.707Z,65.21
2023-04-12T09:12:58.749Z,64.06
2023-04-12T09:23:16.538Z,63.31
2023-04-12T09:33:23.883Z,61.66
2023-04-12T09:43:37.524Z,60.21
2023-04-12T09:53:46.563Z,59.05
2023-04-12T10:03:50.064Z,57.90
2023-04-12T10:13:53.508Z,58.03
2023-04-12T10:23:57.634Z,57.03
2023-04-12T10:34:03.939Z,56.96
2023-04-12T10:44:26.920Z,56.29
2023-04-12T10:54:30.405Z,55.76
2023-04-12T11:04:33.690Z,55.56
2023-04-12T11:14:52.864Z,56.66
2023-04-12T11:25:25.872Z,56.32
2023-04-12T11:35:30.541Z,56.03
2023-04-12T11:45:33.762Z,56.38
2023-04-12T11:55:37.225Z,56.32
2023-04-12T12:05:42.510Z,56.31
2023-04-12T12:15:46.371Z,57.39
2023-04-12T12:25:49.646Z,56.63
2023-04-12T12:35:59.041Z,56.71
2023-04-12T12:46:02.373Z,57.62
2023-04-12T12:56:06.531Z,57.53
2023-04-12T13:06:17.048Z,56.80
2023-04-12T13:16:30.647Z,56.97
2023-04-12T13:26:33.837Z,56.77
2023-04-12T13:36:37.097Z,56.40
2023-04-12T13:46:40.194Z,55.82
2023-04-12T13:56:46.079Z,55.02
2023-04-12T14:06:51.085Z,54.30
2023-04-12T14:16:58.516Z,53.90
2023-04-12T14:27:08.428Z,52.80
2023-04-12T14:37:14.097Z,53.03
2023-04-12T14:47:17.787Z,52.49
2023-04-12T14:57:20.939Z,52.93
2023-04-12T15:07:24.231Z,54.02
2023-04-12T15:17:27.394Z,54.67
2023-04-12T15:27:31.894Z,54.95
2023-04-12T15:37:36.510Z,55.64
2023-04-12T15:47:40.018Z,56.39
2023-04-12T15:57:43.458Z,56.37
2023-04-12T16:07:51.352Z,57.68
2023-04-12T16:17:55.793Z,58.06
2023-04-12T16:28:02.608Z,58.73
2023-04-12T16:38:05.890Z,59.42
2023-04-12T16:48:09.358Z,59.86
2023-04-12T16:58:12.642Z,60.39
2023-04-12T17:08:15.880Z,61.96
2023-04-12T17:18:18.927Z,63.73
2023-04-12T17:28:21.991Z,65.40
2023-04-12T17:38:26.869Z,66.56
2023-04-12T17:48:30.808Z,67.89
2023-04-12T17:58:34.194Z,69.19
2023-04-12T18:08:37.764Z,70.27
2023-04-12T18:18:41.180Z,71.76
2023-04-12T18:28:44.603Z,72.30
2023-04-12T18:38:48.098Z,73.89
2023-04-12T18:48:54.545Z,74.30
2023-04-12T18:58:58.501Z,74.76
2023-04-12T19:09:02.872Z,75.65
2023-04-12T19:19:06.244Z,76.26
2023-04-12T19:29:09.356Z,76.23
2023-04-12T19:39:12.657Z,77.36
2023-04-12T19:49:19.569Z,77.88
2023-04-12T19:59:24.172Z,78.34
2023-04-12T20:09:27.727Z,78.35
2023-04-12T20:19:34.509Z,78.80
2023-04-12T20:29:37.633Z,78.99
2023-04-12T20:39:40.877Z,78.99
2023-04-12T20:49:46.552Z,79.41
2023-04-12T20:59:52.935Z,79.91
2023-04-12T21:09:56.680Z,80.23
2023-04-12T21:20:00.642Z,80.15
2023-04-12T21:30:08.059Z,80.24
2023-04-12T21:40:12.824Z,80.14
2023-04-12T21:50:16.204Z,79.80
2023-04-12T22:00:24.260Z,79.56
2023-04-12T22:10:29.534Z,79.58
2023-04-12T22:20:33.885Z,79.82
2023-04-12T22:30:36.885Z,80.36
2023-04-12T22:40:40.091Z,80.52
2023-04-12T22:50:45.220Z,80.70
2023-04-12T23:00:51.111Z,81.07
2023-04-12T23:10:54.225Z,80.76
2023-04-12T23:20:57.252Z,80.44
2023-04-12T23:31:03.220Z,81.10
2023-04-12T23:41:11.650Z,81.71
2023-04-12T23:51:15.195Z,82.05
